Time;durP1;ratioP1;P1;durP2;ratioP2;P2;SDS_P1;SDS_P2;PMS_P1;PMS_P2;Temp;Humidity;BMP_temperature;BMP_pressure;BME280_temperature;BME280_humidity;BME280_pressure;Samples;Min_cycle;Max_cycle;Signal;HPM_P1;HPM_P2
2022/06/02 00:01:38;;;;;;;1.98;1.00;;;;;;;14.03;59.43;100940.50;5071951;28;20382;-85
2022/06/02 00:04:31;;;;;;;1.73;1.10;;;;;;;14.07;59.45;100936.69;5070807;28;20490;-85
2022/06/02 00:07:17;;;;;;;4.53;0.70;;;;;;;14.07;59.22;100941.97;5071951;28;20032;-84
2022/06/02 00:10:06;;;;;;;0.88;0.70;;;;;;;13.78;59.98;100947.59;5070642;28;20025;-84
2022/06/02 00:13:09;;;;;;;7.57;0.85;;;;;;;13.54;60.28;100937.00;5071903;28;20047;-84
2022/06/02 00:15:41;;;;;;;1.25;0.85;;;;;;;13.63;60.85;100943.44;5071555;28;20027;-85
2022/06/02 00:18:42;;;;;;;1.10;0.85;;;;;;;13.75;60.88;100939.06;5070553;28;20056;-84
2022/06/02 00:21:21;;;;;;;1.08;0.82;;;;;;;13.74;60.45;100938.19;5071843;28;20161;-85
2022/06/02 00:24:12;;;;;;;0.95;0.80;;;;;;;13.80;60.35;100943.06;5071738;28;20031;-84
2022/06/02 00:26:55;;;;;;;3.95;0.85;;;;;;;13.76;60.81;100941.56;5071867;28;20032;-85
2022/06/02 00:29:40;;;;;;;2.55;0.90;;;;;;;13.73;60.67;100947.09;5071599;28;20090;-85
2022/06/02 00:32:23;;;;;;;0.73;0.70;;;;;;;13.72;60.83;100936.63;5071568;28;20052;-84
2022/06/02 00:35:10;;;;;;;2.35;0.90;;;;;;;13.71;60.20;100943.72;5071947;28;20089;-84
2022/06/02 00:37:50;;;;;;;2.35;1.05;;;;;;;13.71;59.70;100943.72;5071167;28;20483;-85
2022/06/02 00:40:20;;;;;;;2.30;1.10;;;;;;;13.62;60.69;100944.38;5071542;28;20025;-84
2022/06/02 00:43:10;;;;;;;1.15;1.05;;;;;;;13.72;60.58;100949.84;5071456;28;20028;-84
2022/06/02 00:45:41;;;;;;;1.25;1.08;;;;;;;13.74;60.47;100948.75;5074773;28;20027;-85
2022/06/02 00:48:27;;;;;;;1.38;1.27;;;;;;;13.67;60.13;100939.63;5075554;28;20475;-84
2022/06/02 00:50:57;;;;;;;2.15;1.00;;;;;;;13.62;60.95;100941.75;5075577;28;20028;-85
2022/06/02 00:53:22;;;;;;;2.03;1.50;;;;;;;13.62;60.07;100939.94;5075496;28;20028;-85
2022/06/02 00:59:23;;;;;;;2.58;1.33;;;;;;;13.65;60.62;100933.63;5075477;28;20083;-84
2022/06/02 01:01:49;;;;;;;4.30;2.00;;;;;;;13.57;60.54;100933.34;5075186;28;20107;-85
2022/06/02 01:04:17;;;;;;;1.63;1.50;;;;;;;13.58;61.26;100935.84;5075508;28;20095;-84
2022/06/02 01:07:06;;;;;;;1.63;1.30;;;;;;;13.49;61.30;100929.44;5075210;28;20044;-85
2022/06/02 01:09:35;;;;;;;1.92;1.33;;;;;;;13.39;61.95;100941.59;5075293;28;20021;-85
2022/06/02 01:12:31;;;;;;;1.83;1.27;;;;;;;13.61;60.95;100937.44;5075460;28;20085;-84
2022/06/02 01:15:26;;;;;;;1.38;1.17;;;;;;;13.56;61.11;100939.53;5075104;28;20486;-84
2022/06/02 01:18:28;;;;;;;3.38;1.52;;;;;;;13.56;61.26;100926.34;5074829;28;20033;-85
2022/06/02 01:21:28;;;;;;;2.10;1.40;;;;;;;13.41;61.20;100926.50;5075119;28;20037;-85
2022/06/02 01:24:21;;;;;;;2.97;1.83;;;;;;;13.47;61.32;100928.72;5073911;28;20422;-84
2022/06/02 01:27:14;;;;;;;2.97;1.05;;;;;;;13.45;61.46;100925.34;5074768;28;20035;-84
2022/06/02 01:30:07;;;;;;;2.20;1.73;;;;;;;13.41;61.49;100930.94;5074976;28;20028;-84
2022/06/02 01:32:46;;;;;;;3.00;1.58;;;;;;;13.35;61.45;100921.69;5074785;28;20025;-84
2022/06/02 01:35:26;;;;;;;2.78;2.10;;;;;;;13.40;61.28;100922.16;5074585;28;20020;-84
2022/06/02 01:38:07;;;;;;;2.20;2.00;;;;;;;13.47;61.00;100918.16;5072284;28;20044;-85
2022/06/02 01:40:44;;;;;;;3.83;1.98;;;;;;;13.33;61.21;100928.88;5073450;28;20032;-85
2022/06/02 01:43:28;;;;;;;2.60;1.63;;;;;;;13.33;61.62;100926.22;5073300;28;20470;-84
2022/06/02 01:46:12;;;;;;;2.00;1.83;;;;;;;13.41;61.69;100926.50;5073479;28;20051;-85
2022/06/02 01:49:06;;;;;;;2.70;2.00;;;;;;;13.38;61.86;100926.72;5073432;28;20120;-85
2022/06/02 01:51:40;;;;;;;3.90;2.03;;;;;;;13.53;61.72;100927.44;5073247;28;20024;-85
2022/06/02 01:54:16;;;;;;;3.10;1.60;;;;;;;13.57;61.12;100928.88;5073387;28;20067;-85
2022/06/02 01:56:56;;;;;;;1.73;1.30;;;;;;;13.45;61.24;100927.97;5072740;28;20570;-85
2022/06/02 01:59:49;;;;;;;2.53;1.75;;;;;;;13.35;61.46;100937.50;5072978;28;20029;-84
2022/06/02 02:02:38;;;;;;;1.80;1.48;;;;;;;13.21;61.82;100930.53;5071806;28;20044;-84
2022/06/02 02:05:22;;;;;;;3.55;1.88;;;;;;;13.07;62.33;100923.59;5071777;28;20024;-84
2022/06/02 02:07:58;;;;;;;2.55;2.03;;;;;;;13.08;62.46;100919.16;5073047;28;20028;-84
2022/06/02 02:10:30;;;;;;;2.70;2.08;;;;;;;13.07;62.24;100928.00;5072908;28;20027;-84
2022/06/02 02:13:02;;;;;;;;;;;;;;;13.05;61.73;100920.22;5071909;28;20501;-85
2022/06/02 02:15:46;;;;;;;2.35;2.10;;;;;;;13.04;62.54;100921.16;5072842;28;19920;-85
2022/06/02 02:18:19;;;;;;;2.75;2.00;;;;;;;13.10;61.99;100922.53;5072824;28;20028;-84
2022/06/02 02:21:09;;;;;;;3.90;2.28;;;;;;;12.99;61.88;100919.81;5072799;28;20060;-84
2022/06/02 02:23:49;;;;;;;2.42;2.22;;;;;;;12.99;62.12;100915.34;5072714;28;20016;-84
2022/06/02 02:26:26;;;;;;;2.60;2.40;;;;;;;13.04;62.39;100918.53;5072798;28;20024;-84
2022/06/02 02:29:18;;;;;;;2.90;2.30;;;;;;;13.04;62.46;100922.97;5072621;28;20020;-84
2022/06/02 02:32:27;;;;;;;2.88;2.25;;;;;;;13.07;61.82;100917.47;5072526;28;20024;-84
2022/06/02 02:35:06;;;;;;;2.58;2.38;;;;;;;13.06;61.85;100927.16;5072613;28;20033;-84
2022/06/02 02:37:47;;;;;;;3.17;2.38;;;;;;;13.01;62.25;100918.75;5032612;28;1119963;-84
2022/06/02 02:40:27;;;;;;;3.17;2.75;;;;;;;13.04;62.46;100915.06;5073455;28;20467;-85
2022/06/02 02:42:58;;;;;;;2.90;2.58;;;;;;;13.07;62.90;100913.06;5073538;28;20024;-85
2022/06/02 02:45:46;;;;;;;4.13;3.22;;;;;;;13.04;62.54;100912.44;5073471;28;20025;-84
2022/06/02 02:48:41;;;;;;;4.32;3.60;;;;;;;13.20;62.24;100912.19;5073400;28;20029;-84
2022/06/02 02:51:15;;;;;;;3.28;2.92;;;;;;;13.20;61.92;100907.75;5072115;28;20032;-84
2022/06/02 02:53:47;;;;;;;5.43;2.97;;;;;;;13.16;61.78;100913.34;5073371;28;20419;-84
2022/06/02 02:56:12;;;;;;;3.17;2.63;;;;;;;13.10;62.29;100904.91;5071777;28;20020;-85
2022/06/02 02:59:43;;;;;;;4.25;2.70;;;;;;;13.12;61.42;100899.53;5073115;28;20082;-84
2022/06/02 03:02:32;;;;;;;2.78;2.58;;;;;;;13.12;61.33;100898.72;5010909;28;20042;-85
2022/06/02 03:05:12;;;;;;;4.88;2.28;;;;;;;13.09;61.99;100902.38;5070203;28;20063;-85
2022/06/02 03:07:38;;;;;;;7.03;3.05;;;;;;;12.99;61.88;100899.53;5072070;28;20425;-85
2022/06/02 03:10:05;;;;;;;3.53;3.22;;;;;;;12.82;62.95;100899.91;5072971;28;20024;-85
2022/06/02 03:13:01;;;;;;;3.35;2.97;;;;;;;12.84;62.55;100903.28;5072724;28;20103;-85
2022/06/02 03:15:42;;;;;;;4.35;3.60;;;;;;;12.82;62.74;100899.91;5072765;28;20067;-84
2022/06/02 03:18:19;;;;;;;3.40;3.10;;;;;;;12.90;62.61;100900.22;5072665;28;20032;-84
2022/06/02 03:21:17;;;;;;;3.78;3.40;;;;;;;12.92;62.49;100898.31;5072535;28;20024;-84
2022/06/02 03:23:56;;;;;;;4.53;4.13;;;;;;;13.12;61.83;100896.91;5071430;28;20052;-84
2022/06/02 03:26:55;;;;;;;3.92;3.55;;;;;;;12.90;62.80;100897.56;5072654;28;20024;-84
2022/06/02 03:29:26;;;;;;;5.57;3.75;;;;;;;12.83;62.90;100898.94;5072393;28;20035;-85
2022/06/02 03:32:09;;;;;;;4.03;3.47;;;;;;;12.91;62.82;100891.34;5072402;28;20104;-84
2022/06/02 03:35:02;;;;;;;4.15;3.72;;;;;;;12.88;63.27;100896.84;5072498;28;20028;-84
2022/06/02 03:37:49;;;;;;;3.95;3.38;;;;;;;12.79;63.08;100897.47;5072275;28;20025;-84
2022/06/02 03:40:29;;;;;;;5.85;4.10;;;;;;;12.81;63.63;100900.84;5072391;28;20028;-84
2022/06/02 03:43:15;;;;;;;7.20;3.85;;;;;;;12.85;63.10;100915.50;5072242;28;20142;-84
2022/06/02 03:46:06;;;;;;;4.13;3.42;;;;;;;12.83;62.73;100914.75;5072379;28;20025;-84
2022/06/02 03:48:37;;;;;;;4.07;2.83;;;;;;;12.79;62.48;100913.28;5072065;28;20040;-84
2022/06/02 03:51:11;;;;;;;2.90;2.60;;;;;;;12.83;62.44;100914.75;5072110;28;20026;-84
2022/06/02 03:54:04;;;;;;;3.22;2.55;;;;;;;12.77;62.79;100917.81;5071972;28;20375;-84
2022/06/02 03:56:47;;;;;;;3.10;2.78;;;;;;;12.59;62.88;100920.75;5072060;28;20028;-84
2022/06/02 03:59:37;;;;;;;4.45;3.22;;;;;;;12.58;62.96;100912.94;5072096;28;20178;-84
2022/06/02 04:02:08;;;;;;;4.75;3.05;;;;;;;12.52;62.89;100914.25;5070516;28;20360;-84
2022/06/02 04:04:49;;;;;;;3.85;3.40;;;;;;;12.51;63.18;100912.53;5070817;28;20055;-84
2022/06/02 04:07:56;;;;;;;4.00;2.80;;;;;;;12.55;63.21;100916.66;5072130;28;20386;-84
2022/06/02 04:10:33;;;;;;;3.63;3.30;;;;;;;12.56;63.28;100906.94;5049388;28;20028;-84
2022/06/02 04:16:08;;;;;;;5.60;4.40;;;;;;;12.67;63.02;100918.44;5072154;28;20039;-84
2022/06/02 04:18:51;;;;;;;6.35;5.10;;;;;;;12.58;62.89;100915.59;5071710;28;20277;-84
2022/06/02 04:21:32;;;;;;;6.10;5.10;;;;;;;12.58;63.01;100915.59;5070511;28;20467;-84
2022/06/02 04:24:33;;;;;;;6.55;4.80;;;;;;;12.46;62.85;100923.41;5071716;28;20073;-84
2022/06/02 04:27:04;;;;;;;4.60;4.10;;;;;;;12.57;62.69;100922.66;5064682;28;20048;-85
2022/06/02 04:29:34;;;;;;;5.40;4.10;;;;;;;12.57;63.00;100920.03;5071754;28;20085;-84
2022/06/02 04:32:20;;;;;;;4.65;3.90;;;;;;;12.62;62.99;100930.28;5070428;28;20051;-84
2022/06/02 04:34:54;;;;;;;5.35;4.53;;;;;;;12.61;62.95;100928.56;5071494;28;20060;-84
2022/06/02 04:37:38;;;;;;;6.05;5.07;;;;;;;12.67;62.66;100936.88;5071521;28;20111;-84
2022/06/02 04:40:33;;;;;;;4.25;3.45;;;;;;;12.59;62.82;100944.47;5071369;28;20508;-84
2022/06/02 04:43:26;;;;;;;3.55;3.10;;;;;;;12.65;62.60;100937.94;5071379;28;20031;-84
2022/06/02 04:46:09;;;;;;;4.57;2.88;;;;;;;12.66;62.77;100939.66;5071619;28;20120;-84
2022/06/02 04:48:56;;;;;;;3.53;2.95;;;;;;;12.64;62.73;100947.66;5070118;28;20479;-84
2022/06/02 04:51:43;;;;;;;7.10;3.63;;;;;;;12.63;62.78;100945.94;5071439;28;20078;-84
2022/06/02 04:54:33;;;;;;;4.13;3.03;;;;;;;12.66;62.82;100947.53;5070173;28;20025;-84
2022/06/02 04:57:35;;;;;;;4.55;3.38;;;;;;;12.73;62.36;100945.31;5071225;28;20368;-84
2022/06/02 05:00:18;;;;;;;6.85;3.70;;;;;;;12.80;62.44;100951.88;5070150;28;20028;-84
2022/06/02 05:03:03;;;;;;;5.13;3.75;;;;;;;12.86;62.85;100946.19;5071414;28;20024;-84
2022/06/02 05:05:45;;;;;;;4.85;3.92;;;;;;;12.75;62.80;100948.69;5070029;28;20035;-84
2022/06/02 05:08:32;;;;;;;4.53;4.13;;;;;;;12.87;62.79;100948.72;5070088;28;20025;-84
2022/06/02 05:11:35;;;;;;;4.22;3.83;;;;;;;12.99;62.46;100949.63;5071348;28;20496;-84
2022/06/02 05:14:16;;;;;;;5.93;5.32;;;;;;;13.02;62.34;100941.53;5064650;28;20390;-84
2022/06/02 05:17:14;;;;;;;5.95;4.82;;;;;;;13.18;62.59;100945.72;5071223;28;20036;-84
2022/06/02 05:20:15;;;;;;;6.40;4.75;;;;;;;13.27;62.80;100955.63;5071176;28;20431;-84
2022/06/02 05:23:01;;;;;;;9.95;4.75;;;;;;;13.33;62.93;100955.22;5051423;28;20037;-84
2022/06/02 05:26:05;;;;;;;5.22;4.53;;;;;;;13.44;63.10;100950.00;5071034;28;20039;-84
2022/06/02 05:29:12;;;;;;;5.93;5.18;;;;;;;13.52;62.83;100943.34;5070696;28;20098;-85
2022/06/02 05:32:00;;;;;;;5.28;4.65;;;;;;;13.64;62.83;100948.59;5073904;28;20090;-85
2022/06/02 05:34:56;;;;;;;5.00;4.40;;;;;;;13.75;62.48;100945.19;5074765;28;20028;-84
2022/06/02 05:37:24;;;;;;;6.93;4.90;;;;;;;13.86;62.75;100942.63;5074571;28;20090;-84
2022/06/02 05:39:57;;;;;;;5.63;4.50;;;;;;;13.95;62.57;100946.34;5074813;28;20025;-84
2022/06/02 05:42:51;;;;;;;5.07;4.57;;;;;;;14.09;62.63;100948.81;5074622;28;20028;-84
2022/06/02 05:45:44;;;;;;;6.63;3.50;;;;;;;14.27;62.31;100940.47;5073406;28;20390;-84
2022/06/02 05:48:49;;;;;;;4.70;4.03;;;;;;;14.39;62.29;100936.91;5071531;28;20482;-84
2022/06/02 05:51:35;;;;;;;3.97;3.58;;;;;;;14.58;62.21;100943.50;5074560;28;20525;-84
2022/06/02 05:54:31;;;;;;;5.72;4.60;;;;;;;14.73;62.13;100944.09;5074581;28;20375;-84
2022/06/02 05:57:06;;;;;;;6.93;4.07;;;;;;;14.83;61.92;100953.00;5074427;28;20017;-84
2022/06/02 06:00:03;;;;;;;6.45;3.92;;;;;;;14.99;61.66;100956.16;5072984;28;20028;-85
2022/06/02 06:02:53;;;;;;;5.55;4.30;;;;;;;15.18;61.32;100960.00;5072986;28;20029;-85
2022/06/02 06:05:45;;;;;;;4.97;4.13;;;;;;;15.40;61.32;100965.31;5074185;28;20035;-84
2022/06/02 06:08:29;;;;;;;6.05;4.85;;;;;;;15.64;60.43;100959.00;5074270;28;20020;-85
2022/06/02 06:11:06;;;;;;;5.40;4.50;;;;;;;15.95;60.17;100957.38;5074083;28;20025;-85
2022/06/02 06:13:49;;;;;;;6.15;4.32;;;;;;;16.42;59.32;100955.25;5072718;28;20097;-85
2022/06/02 06:16:39;;;;;;;4.57;3.67;;;;;;;18.77;53.87;100961.97;5072692;28;20364;-85
2022/06/02 06:19:24;;;;;;;4.72;3.35;;;;;;;22.40;45.45;100957.34;5073896;28;20356;-85
2022/06/02 06:22:06;;;;;;;6.85;2.90;;;;;;;25.22;38.85;100954.47;5072471;28;20068;-85
2022/06/02 06:25:06;;;;;;;3.70;2.95;;;;;;;27.85;32.59;100951.47;5072581;28;20064;-84
2022/06/02 06:27:49;;;;;;;3.85;2.33;;;;;;;30.18;30.39;100950.00;5074215;28;20032;-85
2022/06/02 06:30:24;;;;;;;3.15;2.15;;;;;;;30.66;28.02;100940.41;5073666;28;20090;-85
2022/06/02 06:33:10;;;;;;;4.93;2.33;;;;;;;32.52;26.35;100947.03;5072538;28;20390;-85
2022/06/02 06:35:46;;;;;;;4.43;2.28;;;;;;;33.51;24.43;100946.16;5073471;28;20099;-85
2022/06/02 06:38:36;;;;;;;3.03;1.88;;;;;;;34.57;23.92;100957.22;5073458;28;20498;-85
2022/06/02 06:41:01;;;;;;;3.65;2.17;;;;;;;35.55;22.68;100956.56;5073170;28;20028;-85
2022/06/02 06:44:01;;;;;;;2.83;2.10;;;;;;;36.14;21.79;100943.97;5072473;28;20488;-85
2022/06/02 06:46:40;;;;;;;2.45;2.25;;;;;;;35.83;21.63;100918.31;5073629;28;20102;-86
2022/06/02 06:49:14;;;;;;;2.90;2.15;;;;;;;36.19;21.94;100919.44;5073361;28;20066;-85
2022/06/02 06:52:17;;;;;;;2.10;1.80;;;;;;;36.26;21.18;100906.38;5071779;28;20115;-86
2022/06/02 06:55:10;;;;;;;4.05;2.00;;;;;;;35.77;22.30;100901.06;5071943;28;20025;-86
2022/06/02 06:57:47;;;;;;;2.13;1.55;;;;;;;36.96;21.62;100940.94;5071713;28;20181;-86
2022/06/02 07:00:35;;;;;;;4.45;1.83;;;;;;;37.47;20.94;100949.31;5071566;28;20032;-86
2022/06/02 07:03:14;;;;;;;2.28;1.55;;;;;;;39.03;19.11;100928.59;5073014;28;20025;-86
2022/06/02 07:05:48;;;;;;;4.68;1.98;;;;;;;39.20;19.04;100839.50;5073083;28;20028;-86
2022/06/02 07:08:26;;;;;;;2.92;1.40;;;;;;;40.03;18.57;100829.44;5072931;28;20020;-86
2022/06/02 07:12:50;;;;;;;4.30;1.60;;;;;;;40.28;17.73;100886.09;5072986;28;20055;-86
2022/06/02 07:14:26;;;;;;;2.38;1.83;;;;;;;41.47;17.47;100944.06;5072552;28;20074;-86
2022/06/02 07:16:55;;;;;;;2.70;1.15;;;;;;;41.22;17.65;100902.03;5072310;28;20125;-86
2022/06/02 07:19:24;;;;;;;1.80;1.30;;;;;;;42.43;16.51;100937.22;5072721;28;20504;-86
2022/06/02 07:21:57;;;;;;;2.35;1.20;;;;;;;43.07;15.84;100850.81;5071179;28;20131;-86
2022/06/02 07:24:29;;;;;;;1.88;1.30;;;;;;;42.26;16.68;100810.88;5072651;28;20024;-87
2022/06/02 07:27:18;;;;;;;2.28;1.50;;;;;;;41.46;16.85;100911.31;5072841;28;20099;-87
2022/06/02 07:30:13;;;;;;;4.25;1.92;;;;;;;41.65;16.46;100917.66;5071356;28;20024;-86
2022/06/02 07:33:06;;;;;;;4.30;1.23;;;;;;;40.87;16.65;100808.91;5072346;28;20021;-87
2022/06/02 07:35:31;;;;;;;2.38;1.35;;;;;;;41.56;16.84;100898.19;5072344;28;20386;-84
2022/06/02 07:38:02;;;;;;;1.17;0.80;;;;;;;41.80;16.37;100906.34;5072411;28;20036;-84
2022/06/02 07:40:57;;;;;;;4.22;1.20;;;;;;;41.45;16.96;100879.34;5072584;28;20052;-84
2022/06/02 07:43:45;;;;;;;1.60;0.82;;;;;;;42.16;16.60;100926.97;5072218;28;20028;-84
2022/06/02 07:46:30;;;;;;;1.35;0.95;;;;;;;41.31;16.99;100847.06;5061862;28;20394;-84
2022/06/02 07:49:05;;;;;;;2.08;0.93;;;;;;;42.22;16.86;100837.44;5072350;28;20052;-84
2022/06/02 07:51:39;;;;;;;1.35;0.80;;;;;;;42.47;16.81;100920.88;5072144;28;20060;-84
2022/06/02 07:54:14;;;;;;;1.80;0.88;;;;;;;40.05;17.67;100926.22;5072260;28;20031;-84
2022/06/02 07:56:45;;;;;;;0.80;0.57;;;;;;;39.77;18.48;100928.66;5072065;28;22314;-84
2022/06/02 07:59:54;;;;;;;2.10;0.80;;;;;;;39.65;18.08;100906.22;5072179;28;20032;-84
2022/06/02 08:02:25;;;;;;;1.30;0.88;;;;;;;39.79;18.28;100898.13;5070569;28;20028;-84
2022/06/02 08:05:24;;;;;;;4.28;1.13;;;;;;;39.18;18.56;100918.59;5070872;28;20029;-84
2022/06/02 08:07:59;;;;;;;2.85;1.20;;;;;;;40.51;18.00;100945.03;5072025;28;20474;-86
2022/06/02 08:10:50;;;;;;;2.13;1.10;;;;;;;40.58;18.13;100942.78;5070673;28;20165;-87
2022/06/02 08:13:23;;;;;;;5.90;1.70;;;;;;;41.39;17.68;100915.28;5071544;28;20099;-87
2022/06/02 08:16:03;;;;;;;2.47;1.60;;;;;;;40.62;17.54;100929.22;5071676;28;20414;-86
2022/06/02 08:18:47;;;;;;;3.83;1.23;;;;;;;41.04;17.02;100924.88;5071830;28;20505;-87
2022/06/02 08:21:29;;;;;;;2.67;1.33;;;;;;;40.68;18.57;100946.50;5070450;28;20384;-87
2022/06/02 08:24:24;;;;;;;2.08;1.05;;;;;;;41.00;18.47;100949.41;5071840;28;20025;-87
2022/06/02 08:27:02;;;;;;;1.73;0.82;;;;;;;41.59;17.19;100935.34;5061331;28;20570;-87
2022/06/02 08:29:37;;;;;;;3.75;1.10;;;;;;;40.86;17.73;100943.00;5072188;28;20051;-87
2022/06/02 08:32:18;;;;;;;1.75;1.10;;;;;;;40.24;18.60;100937.31;5070359;28;20475;-87
2022/06/02 08:35:06;;;;;;;4.07;1.23;;;;;;;40.42;18.37;100949.53;5071630;28;20064;-87
2022/06/02 08:37:47;;;;;;;1.80;0.80;;;;;;;39.91;17.90;100941.75;5068421;28;20498;-87
2022/06/02 08:40:46;;;;;;;4.47;1.58;;;;;;;36.86;20.96;100947.19;5070422;28;20501;-86
2022/06/02 08:44:00;;;;;;;7.38;1.27;;;;;;;37.34;20.52;100945.16;5071635;28;20024;-86
2022/06/02 08:46:25;;;;;;;3.78;1.00;;;;;;;39.39;19.13;100936.59;5060965;28;20036;-87
2022/06/02 08:49:19;;;;;;;2.72;1.17;;;;;;;39.44;18.58;100941.28;5070104;28;20036;-87
2022/06/02 08:52:06;;;;;;;2.13;0.82;;;;;;;38.84;19.13;100936.59;5070116;28;20115;-87
2022/06/02 08:55:03;;;;;;;1.80;1.00;;;;;;;36.77;21.48;100941.41;5071546;28;20024;-87
2022/06/02 08:57:56;;;;;;;4.88;1.13;;;;;;;38.35;19.32;100939.19;5071524;28;20029;-86
2022/06/02 09:00:49;;;;;;;2.05;0.80;;;;;;;38.00;19.72;100938.16;5071355;28;20029;-87
2022/06/02 09:03:17;;;;;;;2.83;0.90;;;;;;;36.82;21.09;100935.94;5051399;28;20510;-87
2022/06/02 09:05:49;;;;;;;2.28;1.20;;;;;;;37.58;21.10;100941.91;5073042;28;20067;-87
2022/06/02 09:08:17;;;;;;;1.80;1.05;;;;;;;37.73;19.67;100935.69;5075211;28;20074;-87
2022/06/02 09:11:01;;;;;;;1.35;0.68;;;;;;;38.62;19.56;100939.69;5075210;28;20029;-87
2022/06/02 09:13:47;;;;;;;2.03;0.90;;;;;;;37.59;18.99;100938.94;5075143;28;20388;-87
2022/06/02 09:16:19;;;;;;;2.95;0.73;;;;;;;38.64;19.65;100939.44;5075253;28;20086;-87
2022/06/02 09:19:19;;;;;;;1.35;0.80;;;;;;;35.83;20.95;100940.19;5073855;28;20035;-87
2022/06/02 09:22:03;;;;;;;2.13;1.13;;;;;;;36.77;19.87;100933.19;5074880;28;20467;-87
2022/06/02 09:24:57;;;;;;;5.70;1.27;;;;;;;35.04;21.10;100934.13;5074924;28;20566;-87
2022/06/02 09:27:38;;;;;;;2.85;1.00;;;;;;;33.19;23.13;100942.00;5074879;28;20095;-86
2022/06/02 09:30:23;;;;;;;2.00;1.02;;;;;;;34.41;22.08;100940.91;5075060;28;20031;-87
2022/06/02 09:33:42;;;;;;;1.63;1.20;;;;;;;35.08;21.79;100934.44;5074872;28;20060;-87
2022/06/02 09:36:26;;;;;;;1.23;0.70;;;;;;;36.22;21.23;100929.84;5073392;28;20042;-87
2022/06/02 09:39:20;;;;;;;1.48;0.85;;;;;;;35.12;20.45;100920.03;5073425;28;20083;-86
2022/06/02 09:42:19;;;;;;;0.82;0.60;;;;;;;34.85;21.03;100930.06;5074687;28;20415;-87
2022/06/02 09:45:13;;;;;;;2.67;0.65;;;;;;;36.14;20.37;100924.84;5074465;28;20032;-87
2022/06/02 09:47:47;;;;;;;2.22;0.90;;;;;;;35.70;20.51;100925.03;5074520;28;20028;-87
2022/06/02 09:50:54;;;;;;;3.88;1.13;;;;;;;32.55;23.30;100922.97;5074540;28;20028;-86
2022/06/02 09:53:38;;;;;;;2.72;1.10;;;;;;;31.82;24.82;100919.56;5054434;28;20036;-86
2022/06/02 09:56:42;;;;;;;3.72;0.88;;;;;;;34.90;22.50;100927.41;5074558;28;20082;-86
2022/06/02 09:59:40;;;;;;;2.00;0.60;;;;;;;34.11;21.41;100925.69;5070156;28;20548;-86
2022/06/02 10:02:42;;;;;;;1.55;0.52;;;;;;;32.16;22.86;100921.75;5074326;28;20425;-86
2022/06/02 10:05:33;;;;;;;2.53;0.70;;;;;;;32.60;22.70;100927.69;5072895;28;20048;-86
2022/06/02 10:08:01;;;;;;;0.82;0.50;;;;;;;33.81;22.28;100921.41;5072898;28;20103;-87
2022/06/02 10:11:02;;;;;;;5.15;0.90;;;;;;;34.24;21.22;100933.53;5074278;28;20620;-87
2022/06/02 10:13:46;;;;;;;2.28;0.70;;;;;;;33.60;22.38;100928.34;5051490;28;20078;-86
2022/06/02 10:16:49;;;;;;;0.95;0.50;;;;;;;34.82;21.13;100925.13;5071759;28;20048;-87
2022/06/02 10:19:33;;;;;;;1.25;0.75;;;;;;;31.94;23.51;100922.28;5072556;28;20036;-87
2022/06/02 10:22:04;;;;;;;2.53;0.85;;;;;;;30.39;26.00;100926.28;5073726;28;20128;-87
2022/06/02 10:24:32;;;;;;;;;;;;;;;29.83;26.31;100926.09;5074352;28;20074;-86
2022/06/02 10:27:16;;;;;;;1.60;0.75;;;;;;;28.96;27.76;100928.38;5074050;28;19920;-86
2022/06/02 10:30:03;;;;;;;2.72;0.70;;;;;;;28.45;27.69;100929.91;5072391;28;20071;-86
2022/06/02 10:32:56;;;;;;;5.38;0.70;;;;;;;28.35;28.46;100925.97;5073651;28;20021;-86
2022/06/02 10:35:59;;;;;;;3.97;1.00;;;;;;;27.60;29.07;100923.41;5073596;28;20052;-86
2022/06/02 10:38:27;;;;;;;1.08;0.70;;;;;;;27.11;29.47;100917.19;5073385;28;20169;-86
2022/06/02 10:41:29;;;;;;;1.40;0.80;;;;;;;26.23;31.00;100920.34;5072329;28;20040;-86
2022/06/02 10:44:15;;;;;;;3.90;0.70;;;;;;;26.34;31.26;100921.66;5072274;28;20051;-86
2022/06/02 10:46:59;;;;;;;1.00;0.70;;;;;;;26.55;30.76;100923.50;5073979;28;20489;-86
2022/06/02 10:49:36;;;;;;;1.73;0.70;;;;;;;26.49;31.56;100914.34;5073389;28;20090;-86
2022/06/02 10:52:30;;;;;;;1.38;0.65;;;;;;;26.39;30.63;100913.84;5073574;28;20028;-86
2022/06/02 10:55:27;;;;;;;1.85;0.77;;;;;;;27.79;28.62;100911.00;5073348;28;20028;-86
2022/06/02 10:58:11;;;;;;;2.88;1.10;;;;;;;30.82;26.01;100901.03;5073133;28;20043;-86
2022/06/02 11:00:55;;;;;;;8.73;0.70;;;;;;;29.10;26.08;100904.81;5073170;28;20028;-86
2022/06/02 11:03:23;;;;;;;1.65;0.60;;;;;;;30.50;25.47;100900.38;5073066;28;20108;-86
2022/06/02 11:06:17;;;;;;;4.78;1.20;;;;;;;31.43;24.27;100904.66;5073095;28;20371;-86
2022/06/02 11:09:19;;;;;;;1.08;0.50;;;;;;;32.57;22.26;100906.44;5072876;28;20416;-86
2022/06/02 11:12:06;;;;;;;1.17;0.65;;;;;;;29.96;26.01;100908.94;5071630;28;20028;-87
2022/06/02 11:14:47;;;;;;;1.27;0.50;;;;;;;29.30;26.34;100899.34;5073162;28;20024;-86
2022/06/02 11:17:49;;;;;;;1.15;0.45;;;;;;;28.66;26.31;100903.72;5072891;28;20150;-86
2022/06/02 11:20:26;;;;;;;1.17;0.55;;;;;;;30.49;25.80;100898.69;5072730;28;20118;-86
2022/06/02 11:23:13;;;;;;;1.30;0.52;;;;;;;30.08;25.99;100900.13;5071191;28;20359;-86
2022/06/02 11:26:13;;;;;;;3.03;0.70;;;;;;;29.07;26.94;100900.69;5072844;28;20078;-86
2022/06/02 11:29:00;;;;;;;0.90;0.70;;;;;;;28.38;28.78;100907.50;5067872;28;20467;-87
2022/06/02 11:32:06;;;;;;;0.70;0.40;;;;;;;27.76;29.09;100903.28;5072308;28;20543;-86
2022/06/02 11:34:52;;;;;;;1.50;0.50;;;;;;;28.39;28.22;100905.63;5072494;28;20103;-86
2022/06/02 11:37:21;;;;;;;1.17;0.60;;;;;;;28.14;28.57;100889.22;5071046;28;20033;-86
2022/06/02 11:40:16;;;;;;;0.88;0.55;;;;;;;27.47;29.15;100891.84;5072738;28;20032;-86
2022/06/02 11:42:56;;;;;;;1.88;0.60;;;;;;;27.72;29.28;100892.06;5070890;28;20021;-86
2022/06/02 11:45:42;;;;;;;1.58;0.40;;;;;;;27.94;29.50;100890.03;5072334;28;20107;-86
2022/06/02 11:48:14;;;;;;;1.20;0.47;;;;;;;28.63;26.96;100887.94;5060826;28;20051;-86
2022/06/02 11:51:01;;;;;;;2.50;0.30;;;;;;;28.38;27.93;100885.88;5072356;28;20141;-86
2022/06/02 11:53:52;;;;;;;2.25;0.60;;;;;;;28.40;27.75;100875.69;5070894;28;20063;-86
2022/06/02 11:56:25;;;;;;;2.28;0.70;;;;;;;29.27;26.77;100873.56;5071990;28;20035;-86
2022/06/02 11:59:29;;;;;;;2.15;1.15;;;;;;;27.95;28.11;100880.94;5072063;28;20032;-86
2022/06/02 12:02:20;;;;;;;1.27;0.50;;;;;;;27.82;28.20;100880.88;5071947;28;20031;-86
2022/06/02 12:05:11;;;;;;;1.42;0.50;;;;;;;28.41;27.61;100873.81;5072046;28;20056;-86
2022/06/02 12:08:13;;;;;;;0.60;0.40;;;;;;;29.57;26.50;100875.66;5071964;28;20604;-86
2022/06/02 12:10:51;;;;;;;1.02;0.40;;;;;;;29.01;26.88;100870.94;5072175;28;20032;-86
2022/06/02 12:13:31;;;;;;;1.17;0.40;;;;;;;30.87;25.79;100865.13;5071876;28;20359;-86
2022/06/02 12:16:22;;;;;;;1.25;0.52;;;;;;;31.57;24.13;100857.28;5070703;28;20028;-86
2022/06/02 12:19:25;;;;;;;0.88;0.40;;;;;;;30.21;24.94;100862.06;5071708;28;20115;-86
2022/06/02 12:21:59;;;;;;;3.28;0.40;;;;;;;28.97;25.70;100858.91;5071824;28;20024;-86
2022/06/02 12:24:38;;;;;;;0.40;0.30;;;;;;;29.37;25.98;100856.03;5072387;28;20028;-87
2022/06/02 12:27:51;;;;;;;0.73;0.30;;;;;;;30.33;24.66;100854.06;5071756;28;20035;-86
2022/06/02 12:30:43;;;;;;;1.38;0.40;;;;;;;30.01;24.60;100852.22;5035116;28;20403;-87
2022/06/02 12:33:57;;;;;;;0.30;0.20;;;;;;;29.10;25.91;100849.91;5071579;28;20081;-86
2022/06/02 12:36:51;;;;;;;2.03;0.43;;;;;;;30.21;26.80;100841.25;5066429;28;20071;-86
2022/06/02 12:39:45;;;;;;;1.23;0.40;;;;;;;30.29;25.94;100853.63;5072557;28;20029;-86
2022/06/02 12:42:31;;;;;;;0.30;0.30;;;;;;;31.70;24.05;100842.69;5076058;28;20020;-86
2022/06/02 12:45:22;;;;;;;0.98;0.40;;;;;;;31.84;23.31;100842.50;5075850;28;20024;-86
2022/06/02 12:48:10;;;;;;;0.95;0.30;;;;;;;32.54;21.92;100837.00;5065122;28;20491;-86
2022/06/02 12:50:57;;;;;;;0.47;0.20;;;;;;;31.63;22.77;100836.53;5074231;28;20117;-87
2022/06/02 12:53:53;;;;;;;1.63;0.30;;;;;;;32.15;22.61;100834.03;5074308;28;20037;-86
2022/06/02 12:57:00;;;;;;;0.82;0.13;;;;;;;32.11;23.12;100838.28;5074383;28;20029;-86
2022/06/02 12:59:26;;;;;;;1.17;0.20;;;;;;;32.10;22.33;100836.59;5075510;28;20470;-87